Time;durP1;ratioP1;P1;durP2;ratioP2;P2;SDS_P1;SDS_P2;PMS_P1;PMS_P2;Temp;Humidity;BMP_temperature;BMP_pressure;BME280_temperature;BME280_humidity;BME280_pressure;Samples;Min_cycle;Max_cycle;Signal;HPM_P1;HPM_P2
2023/07/20 00:00:15;;;;;;;4.82;2.03;;;21.00;99.90;;;;;;5071559;28;20204;-61
2023/07/20 00:02:44;;;;;;;7.88;2.25;;;20.90;99.90;;;;;;5071559;28;20285;-61
2023/07/20 00:05:12;;;;;;;4.32;1.75;;;20.90;99.90;;;;;;5070852;28;20311;-61
2023/07/20 00:07:41;;;;;;;3.90;1.92;;;20.90;99.90;;;;;;5071396;28;20204;-61
2023/07/20 00:10:10;;;;;;;2.67;2.28;;;20.90;99.90;;;;;;5071396;28;20295;-60
2023/07/20 00:12:38;;;;;;;4.45;2.17;;;20.90;99.90;;;;;;5071444;28;20741;-61
2023/07/20 00:15:06;;;;;;;3.75;1.75;;;20.80;99.90;;;;;;5071063;28;20225;-61
2023/07/20 00:17:37;;;;;;;4.32;1.80;;;20.80;99.90;;;;;;5081815;28;20635;-61
2023/07/20 00:20:06;;;;;;;5.65;2.10;;;20.80;99.90;;;;;;5054893;28;20635;-61
2023/07/20 00:22:34;;;;;;;2.30;1.80;;;20.80;99.90;;;;;;5071419;28;20205;-61
2023/07/20 00:25:04;;;;;;;2.75;1.98;;;20.80;99.90;;;;;;5070777;28;20730;-61
2023/07/20 00:27:32;;;;;;;3.25;1.63;;;20.70;99.90;;;;;;5071022;28;20197;-61
2023/07/20 00:30:00;;;;;;;3.85;1.90;;;20.70;99.90;;;;;;5071124;28;20374;-60
2023/07/20 00:32:28;;;;;;;6.57;2.10;;;20.60;99.90;;;;;;5071049;28;20227;-60
2023/07/20 00:34:56;;;;;;;4.78;1.90;;;20.50;99.90;;;;;;5070826;28;20216;-60
2023/07/20 00:37:24;;;;;;;5.32;1.67;;;20.50;99.90;;;;;;5071170;28;20200;-60
2023/07/20 00:39:52;;;;;;;5.15;1.80;;;20.40;99.90;;;;;;5071175;28;20208;-60
2023/07/20 00:42:21;;;;;;;1.38;1.27;;;20.30;99.90;;;;;;5071181;28;20209;-60
2023/07/20 00:44:50;;;;;;;4.35;1.63;;;20.20;99.90;;;;;;5070503;28;20278;-61
2023/07/20 00:47:17;;;;;;;4.82;1.90;;;20.10;99.90;;;;;;5071081;28;20274;-61
2023/07/20 00:49:46;;;;;;;3.40;2.10;;;20.00;99.90;;;;;;5071049;28;20217;-61
2023/07/20 00:52:14;;;;;;;3.83;2.08;;;20.00;99.90;;;;;;5070902;28;20200;-61
2023/07/20 00:54:42;;;;;;;4.00;2.08;;;19.90;99.90;;;;;;5070545;28;20220;-61
2023/07/20 00:57:10;;;;;;;5.57;2.15;;;19.80;99.90;;;;;;5072839;28;20266;-61
2023/07/20 00:59:39;;;;;;;1.65;1.55;;;19.70;99.90;;;;;;5074562;28;20655;-61
2023/07/20 01:02:07;;;;;;;5.07;1.80;;;19.70;99.90;;;;;;5074343;28;20204;-61
2023/07/20 01:04:35;;;;;;;4.40;2.17;;;19.60;99.90;;;;;;5074215;28;20278;-61
2023/07/20 01:07:07;;;;;;;9.60;1.85;;;19.50;99.90;;;;;;5073983;28;20236;-61
2023/07/20 01:09:37;;;;;;;7.88;2.17;;;19.40;99.90;;;;;;5074151;28;20646;-61
2023/07/20 01:12:08;;;;;;;3.17;2.05;;;19.40;99.90;;;;;;5074461;28;20258;-60
2023/07/20 01:14:36;;;;;;;3.28;2.00;;;19.30;99.90;;;;;;5074196;28;20277;-61
2023/07/20 01:17:05;;;;;;;5.05;2.00;;;19.20;99.90;;;;;;5080492;28;20257;-61
2023/07/20 01:19:34;;;;;;;8.30;2.35;;;19.20;99.90;;;;;;5078743;28;20201;-61
2023/07/20 01:22:04;;;;;;;4.07;1.88;;;19.20;99.90;;;;;;5073306;28;20232;-61
2023/07/20 01:25:00;;;;;;;8.85;2.10;;;19.00;99.90;;;;;;5073868;28;20302;-61
2023/07/20 01:28:04;;;;;;;2.00;1.85;;;19.00;99.90;;;;;;5073215;28;20615;-61
2023/07/20 01:30:48;;;;;;;6.97;1.90;;;19.00;99.90;;;;;;5068973;28;20681;-61
2023/07/20 01:33:17;;;;;;;4.20;1.75;;;18.90;99.90;;;;;;5067451;28;20290;-61
2023/07/20 01:35:46;;;;;;;2.70;1.80;;;18.90;99.90;;;;;;5073435;28;20224;-61
2023/07/20 01:38:14;;;;;;;2.58;1.92;;;18.80;99.90;;;;;;5073888;28;20228;-61
2023/07/20 01:40:42;;;;;;;3.67;2.15;;;18.70;99.90;;;;;;5073801;28;20226;-61
2023/07/20 01:43:10;;;;;;;4.13;2.20;;;18.70;99.90;;;;;;5073588;28;20232;-60
2023/07/20 01:45:38;;;;;;;3.72;2.10;;;18.70;99.90;;;;;;5073314;28;20731;-61
2023/07/20 01:48:06;;;;;;;2.65;1.88;;;18.70;99.90;;;;;;5057305;28;20207;-60
2023/07/20 01:50:35;;;;;;;3.88;2.13;;;18.70;99.90;;;;;;5073515;28;20229;-61
2023/07/20 01:53:03;;;;;;;3.70;1.63;;;18.70;99.90;;;;;;5073536;28;20232;-60
2023/07/20 01:55:31;;;;;;;3.13;1.88;;;18.60;99.90;;;;;;5073084;28;20228;-60
2023/07/20 01:58:00;;;;;;;7.63;1.95;;;18.50;99.90;;;;;;5073436;28;20687;-60
2023/07/20 02:00:27;;;;;;;4.60;2.35;;;18.50;99.90;;;;;;5073399;28;20200;-60
2023/07/20 02:02:55;;;;;;;4.10;1.98;;;18.50;99.90;;;;;;5063751;28;20209;-60
2023/07/20 02:05:24;;;;;;;7.07;1.73;;;18.50;99.90;;;;;;5096344;22;20327;-59
2023/07/20 02:07:53;;;;;;;3.75;1.70;;;18.40;99.90;;;;;;5088627;28;20790;-62
2023/07/20 02:10:22;;;;;;;4.22;2.10;;;18.40;99.90;;;;;;5078875;28;20224;-62
2023/07/20 02:12:49;;;;;;;2.75;1.83;;;18.40;99.90;;;;;;5080354;28;20291;-62
2023/07/20 02:15:18;;;;;;;3.45;1.83;;;18.40;99.90;;;;;;5072804;28;20263;-63
2023/07/20 02:17:46;;;;;;;6.10;2.22;;;18.30;99.90;;;;;;5072706;28;20625;-62
2023/07/20 02:20:14;;;;;;;6.53;1.92;;;18.30;99.90;;;;;;5077667;28;20257;-62
2023/07/20 02:22:42;;;;;;;2.33;1.90;;;18.30;99.90;;;;;;5083341;28;20201;-64
2023/07/20 02:25:11;;;;;;;3.45;1.73;;;18.30;99.90;;;;;;5088711;28;20220;-64
2023/07/20 02:27:39;;;;;;;6.22;2.00;;;18.30;99.90;;;;;;5072518;28;20292;-63
2023/07/20 02:30:09;;;;;;;3.80;1.90;;;18.30;99.90;;;;;;5060270;28;20216;-64
2023/07/20 02:32:37;;;;;;;6.22;1.95;;;18.30;99.90;;;;;;5084930;28;20213;-64
2023/07/20 02:35:06;;;;;;;5.15;2.10;;;18.20;99.90;;;;;;5083915;28;20771;-62
2023/07/20 02:37:35;;;;;;;4.93;2.30;;;18.20;99.90;;;;;;5076881;28;20263;-64
2023/07/20 02:40:04;;;;;;;4.90;2.10;;;18.10;99.90;;;;;;5089327;28;20280;-64
2023/07/20 02:42:33;;;;;;;5.45;1.63;;;18.10;99.90;;;;;;5079672;28;20615;-64
2023/07/20 02:45:02;;;;;;;4.13;2.10;;;18.10;99.90;;;;;;5080868;28;20728;-64
2023/07/20 02:47:30;;;;;;;2.53;1.88;;;18.00;99.90;;;;;;5087467;28;20638;-64
2023/07/20 02:49:58;;;;;;;6.32;2.28;;;18.00;99.90;;;;;;5075873;28;20590;-64
2023/07/20 02:52:26;;;;;;;1.70;1.60;;;17.90;99.90;;;;;;5086106;28;20205;-64
2023/07/20 02:54:54;;;;;;;3.80;2.03;;;17.90;99.90;;;;;;5082768;28;20668;-64
2023/07/20 02:57:22;;;;;;;3.10;1.95;;;17.90;99.90;;;;;;5078088;28;20319;-64
2023/07/20 02:59:51;;;;;;;2.05;1.70;;;17.90;99.90;;;;;;5088978;28;20259;-64
2023/07/20 03:02:19;;;;;;;4.53;1.90;;;17.90;99.90;;;;;;5077260;28;20287;-64
2023/07/20 03:04:46;;;;;;;7.63;2.10;;;17.90;99.90;;;;;;5082657;28;20263;-64
2023/07/20 03:07:14;;;;;;;2.90;1.95;;;17.80;99.90;;;;;;5085243;28;20236;-63
2023/07/20 03:09:44;;;;;;;3.35;1.80;;;17.80;99.90;;;;;;5075419;28;20262;-63
2023/07/20 03:12:12;;;;;;;3.72;1.60;;;17.70;99.90;;;;;;5087473;28;20225;-64
2023/07/20 03:14:40;;;;;;;2.63;1.63;;;17.70;99.90;;;;;;5084460;28;20307;-63
2023/07/20 03:17:10;;;;;;;3.35;1.80;;;17.70;99.90;;;;;;5069638;28;20315;-64
2023/07/20 03:19:37;;;;;;;4.25;1.85;;;17.60;99.90;;;;;;5084947;28;20667;-64
2023/07/20 03:22:05;;;;;;;5.88;1.92;;;17.50;99.90;;;;;;5080115;28;20250;-62
2023/07/20 03:24:33;;;;;;;3.72;1.63;;;17.50;99.90;;;;;;5079077;28;20736;-62
2023/07/20 03:27:01;;;;;;;4.53;1.80;;;17.50;99.90;;;;;;5080371;28;20733;-62
2023/07/20 03:29:31;;;;;;;3.88;1.98;;;17.40;99.90;;;;;;5086905;28;20261;-62
2023/07/20 03:31:59;;;;;;;3.97;1.67;;;17.40;99.90;;;;;;5075217;28;20654;-62
2023/07/20 03:34:29;;;;;;;2.47;1.83;;;17.40;99.90;;;;;;5085285;28;20295;-62
2023/07/20 03:36:57;;;;;;;6.80;1.98;;;17.40;99.90;;;;;;5082290;28;20614;-62
2023/07/20 03:39:24;;;;;;;4.88;2.10;;;17.30;99.90;;;;;;5077278;28;20303;-62
2023/07/20 03:41:52;;;;;;;3.03;2.13;;;17.30;99.90;;;;;;5085608;28;20280;-62
2023/07/20 03:44:20;;;;;;;3.58;2.33;;;17.30;99.90;;;;;;5083369;28;20232;-63
2023/07/20 03:46:48;;;;;;;6.15;2.00;;;17.20;99.90;;;;;;5091630;28;20254;-64
2023/07/20 03:49:16;;;;;;;4.20;2.15;;;17.20;99.90;;;;;;5078219;28;20197;-64
2023/07/20 03:51:45;;;;;;;3.83;1.83;;;17.20;99.90;;;;;;5088037;28;20677;-63
2023/07/20 03:54:13;;;;;;;4.30;2.08;;;17.10;99.90;;;;;;5075971;28;20196;-64
2023/07/20 03:56:41;;;;;;;2.35;1.80;;;17.10;99.90;;;;;;5083018;28;20277;-62
2023/07/20 03:59:09;;;;;;;3.80;1.98;;;17.10;99.90;;;;;;5084239;28;20634;-62
2023/07/20 04:01:39;;;;;;;2.03;1.83;;;17.10;99.90;;;;;;5075192;28;20200;-62
2023/07/20 04:04:08;;;;;;;6.03;1.90;;;17.00;99.90;;;;;;5059147;28;20204;-62
2023/07/20 04:06:36;;;;;;;3.10;1.60;;;17.00;99.90;;;;;;5083221;28;20228;-62
2023/07/20 04:09:05;;;;;;;4.97;2.25;;;17.00;99.90;;;;;;5082894;28;20693;-62
2023/07/20 04:11:33;;;;;;;4.90;1.90;;;16.90;99.90;;;;;;5075544;28;20802;-64
2023/07/20 04:14:01;;;;;;;4.45;1.92;;;16.90;99.90;;;;;;5088152;28;20201;-64
2023/07/20 04:16:29;;;;;;;2.95;1.95;;;16.80;99.90;;;;;;5076229;28;20273;-64
2023/07/20 04:18:57;;;;;;;5.97;2.35;;;16.80;99.90;;;;;;5077374;28;20208;-64
2023/07/20 04:21:27;;;;;;;3.65;2.13;;;16.80;99.90;;;;;;5079571;28;20232;-64
2023/07/20 04:23:55;;;;;;;3.92;1.98;;;16.80;99.90;;;;;;5083465;28;20208;-61
2023/07/20 04:26:25;;;;;;;6.38;1.88;;;16.80;99.90;;;;;;5087716;28;20316;-60
2023/07/20 04:28:52;;;;;;;4.00;1.85;;;16.80;99.90;;;;;;5079219;28;20676;-60
2023/07/20 04:31:20;;;;;;;2.00;1.83;;;16.90;99.90;;;;;;5081870;28;21518;-60
2023/07/20 04:33:48;;;;;;;2.85;1.90;;;17.10;99.90;;;;;;5086723;28;20789;-60
2023/07/20 04:36:19;;;;;;;2.28;1.90;;;17.30;99.90;;;;;;5095126;28;20231;-60
2023/07/20 04:38:47;;;;;;;2.65;1.88;;;17.50;99.90;;;;;;5085912;28;20240;-60
2023/07/20 04:41:15;;;;;;;3.03;2.03;;;17.70;99.90;;;;;;5088216;28;20200;-60
2023/07/20 04:43:45;;;;;;;3.22;1.90;;;17.80;99.90;;;;;;5078288;28;20237;-60
2023/07/20 04:46:13;;;;;;;3.97;1.70;;;17.90;99.90;;;;;;5090134;28;20243;-63
2023/07/20 04:48:41;;;;;;;3.90;1.70;;;18.00;99.90;;;;;;5083224;28;20243;-62
2023/07/20 04:51:10;;;;;;;6.10;1.73;;;18.10;99.90;;;;;;5082849;28;20231;-63
2023/07/20 04:53:38;;;;;;;5.15;2.13;;;18.20;99.90;;;;;;5091264;28;20300;-58
2023/07/20 04:56:05;;;;;;;3.50;1.73;;;18.20;99.90;;;;;;5061641;28;20650;-59
2023/07/20 04:58:33;;;;;;;3.30;2.20;;;18.20;99.90;;;;;;5087335;28;20233;-60
2023/07/20 05:01:03;;;;;;;5.00;1.90;;;18.20;99.90;;;;;;5085668;28;20794;-60
2023/07/20 05:03:30;;;;;;;4.32;1.80;;;18.20;99.90;;;;;;5079442;28;20233;-58
2023/07/20 05:05:58;;;;;;;4.00;1.60;;;18.20;99.90;;;;;;5090966;28;20236;-63
2023/07/20 05:08:27;;;;;;;6.38;1.90;;;18.20;99.90;;;;;;5080922;28;20228;-60
2023/07/20 05:10:55;;;;;;;3.28;1.65;;;18.20;99.90;;;;;;5084201;28;20304;-60
2023/07/20 05:13:23;;;;;;;3.42;1.83;;;18.30;99.90;;;;;;5083593;28;20868;-60
2023/07/20 05:15:52;;;;;;;6.15;2.05;;;18.30;99.90;;;;;;5086847;28;20231;-61
2023/07/20 05:18:22;;;;;;;3.13;1.83;;;18.30;99.90;;;;;;5091391;28;20232;-62
2023/07/20 05:20:50;;;;;;;3.20;2.00;;;18.30;99.90;;;;;;5085484;28;20236;-63
2023/07/20 05:23:19;;;;;;;2.92;1.90;;;18.30;99.90;;;;;;5088860;28;20290;-63
2023/07/20 05:25:47;;;;;;;4.10;1.70;;;18.30;99.90;;;;;;5077795;28;20233;-62
2023/07/20 05:28:15;;;;;;;5.90;1.85;;;18.20;99.90;;;;;;5089538;28;20243;-60
2023/07/20 05:30:43;;;;;;;4.97;1.73;;;18.30;99.90;;;;;;5091403;28;20683;-60
2023/07/20 05:33:10;;;;;;;6.03;2.20;;;18.40;99.90;;;;;;5073685;28;20304;-60
2023/07/20 05:35:40;;;;;;;4.25;1.42;;;18.40;99.90;;;;;;5090210;28;20220;-60
2023/07/20 05:38:08;;;;;;;4.68;1.80;;;18.50;99.90;;;;;;5061558;28;20295;-60
2023/07/20 05:40:38;;;;;;;1.95;1.75;;;18.60;99.90;;;;;;5086117;28;20291;-60
2023/07/20 05:43:06;;;;;;;4.25;1.60;;;18.60;99.90;;;;;;5084598;28;20200;-61
2023/07/20 05:45:33;;;;;;;3.22;1.83;;;18.70;99.90;;;;;;5077653;28;20300;-60
2023/07/20 05:48:02;;;;;;;2.92;1.70;;;18.70;99.90;;;;;;5090454;28;20246;-60
2023/07/20 05:50:30;;;;;;;4.65;1.80;;;18.80;99.90;;;;;;5080669;28;20228;-61
2023/07/20 05:52:59;;;;;;;3.70;1.88;;;18.80;99.90;;;;;;5082746;28;20259;-58
2023/07/20 05:55:27;;;;;;;2.50;1.55;;;18.80;99.90;;;;;;5088301;28;20251;-58
2023/07/20 05:57:55;;;;;;;4.53;1.80;;;18.80;99.90;;;;;;5076903;28;20672;-59
2023/07/20 06:00:26;;;;;;;4.35;1.83;;;18.90;99.90;;;;;;5087582;28;20209;-58
2023/07/20 06:02:54;;;;;;;4.10;1.80;;;18.90;99.90;;;;;;5083843;28;20235;-58
2023/07/20 06:05:23;;;;;;;3.97;1.90;;;19.00;99.90;;;;;;5078691;28;20232;-58
2023/07/20 06:07:57;;;;;;;8.23;1.65;;;19.00;99.90;;;;;;5089912;28;20289;-58
2023/07/20 06:10:27;;;;;;;7.57;2.00;;;19.10;99.90;;;;;;5079849;28;20225;-61
2023/07/20 06:12:55;;;;;;;3.30;1.80;;;19.10;99.90;;;;;;5083553;28;20311;-61
2023/07/20 06:15:27;;;;;;;3.40;1.67;;;19.10;99.90;;;;;;5088148;28;20216;-60
2023/07/20 06:17:55;;;;;;;5.20;1.90;;;19.10;99.90;;;;;;5074561;28;20212;-60
2023/07/20 06:20:23;;;;;;;3.72;2.10;;;19.10;99.90;;;;;;5079792;28;20247;-60
2023/07/20 06:22:51;;;;;;;3.05;1.73;;;19.10;99.90;;;;;;5083318;28;20205;-57
2023/07/20 06:25:20;;;;;;;3.08;2.13;;;19.20;99.90;;;;;;5086073;28;20302;-58
2023/07/20 06:27:50;;;;;;;6.60;2.00;;;19.30;99.90;;;;;;5088782;28;20699;-58
2023/07/20 06:30:18;;;;;;;13.20;2.38;;;19.20;99.90;;;;;;5077516;28;20235;-60
2023/07/20 06:32:46;;;;;;;3.42;2.20;;;19.20;99.90;;;;;;5083249;28;20224;-60
2023/07/20 06:35:14;;;;;;;5.80;2.38;;;19.20;99.90;;;;;;5085824;28;20220;-57
2023/07/20 06:37:42;;;;;;;3.22;2.00;;;19.10;99.90;;;;;;5075845;28;20733;-58
2023/07/20 06:40:11;;;;;;;1.88;1.65;;;19.10;99.90;;;;;;5088438;28;20639;-60
2023/07/20 06:42:41;;;;;;;7.65;2.00;;;19.20;99.90;;;;;;5080984;28;20275;-58
2023/07/20 06:45:14;;;;;;;4.47;1.90;;;19.30;99.90;;;;;;5079391;28;20320;-60
2023/07/20 06:47:42;;;;;;;7.05;1.90;;;19.30;99.90;;;;;;5086636;28;20227;-60
2023/07/20 06:50:11;;;;;;;5.15;2.08;;;19.50;99.90;;;;;;5070313;28;20329;-59
2023/07/20 06:52:44;;;;;;;5.47;2.08;;;19.60;99.90;;;;;;5080183;28;20215;-59
2023/07/20 06:55:12;;;;;;;4.85;2.10;;;19.70;99.90;;;;;;5078164;28;20231;-59
2023/07/20 06:57:40;;;;;;;4.80;2.00;;;19.80;99.90;;;;;;5089588;28;20199;-59
2023/07/20 07:00:12;;;;;;;7.95;2.28;;;20.00;99.90;;;;;;5088042;28;20574;-60
2023/07/20 07:02:41;;;;;;;6.38;1.92;;;20.00;99.90;;;;;;5080337;28;20283;-57
2023/07/20 07:05:09;;;;;;;6.28;1.77;;;20.00;99.90;;;;;;5079830;28;20232;-60
2023/07/20 07:07:40;;;;;;;3.80;2.17;;;20.00;99.90;;;;;;5089715;28;20286;-60
2023/07/20 07:10:09;;;;;;;7.45;1.98;;;20.00;99.90;;;;;;5072537;28;20201;-59
2023/07/20 07:12:36;;;;;;;3.53;1.90;;;20.00;99.90;;;;;;5079748;28;20699;-60
2023/07/20 07:15:06;;;;;;;6.70;2.25;;;20.00;99.90;;;;;;5092211;28;20259;-59
2023/07/20 07:17:35;;;;;;;4.05;1.80;;;20.00;99.90;;;;;;5076520;28;20197;-60
2023/07/20 07:20:08;;;;;;;5.82;2.28;;;20.00;99.90;;;;;;5051995;28;20704;-59
2023/07/20 07:22:47;;;;;;;4.47;2.05;;;20.10;99.90;;;;;;5070311;28;20638;-59
2023/07/20 07:25:20;;;;;;;3.50;1.67;;;20.10;99.90;;;;;;5091781;28;20785;-59
2023/07/20 07:27:51;;;;;;;3.80;1.85;;;20.20;99.90;;;;;;5090457;28;20203;-60
2023/07/20 07:30:19;;;;;;;13.93;2.75;;;20.20;99.90;;;;;;5076964;28;20697;-60
2023/07/20 07:32:47;;;;;;;6.15;2.00;;;20.20;99.90;;;;;;5082346;28;20213;-60
2023/07/20 07:35:16;;;;;;;3.60;1.90;;;20.30;99.90;;;;;;5071618;28;20267;-59
2023/07/20 07:37:46;;;;;;;3.35;2.05;;;20.40;99.90;;;;;;5072404;28;20676;-58
2023/07/20 07:40:30;;;;;;;4.07;2.22;;;20.50;99.90;;;;;;5084851;28;20207;-59
2023/07/20 07:42:58;;;;;;;4.57;2.20;;;20.70;99.90;;;;;;5082833;28;20429;-60
2023/07/20 07:45:26;;;;;;;2.28;2.10;;;20.70;99.90;;;;;;5076468;28;20278;-61
2023/07/20 07:47:54;;;;;;;4.18;2.08;;;20.80;99.90;;;;;;5088082;28;20200;-58
2023/07/20 07:50:24;;;;;;;7.47;2.58;;;20.80;99.90;;;;;;5071498;28;20762;-59
2023/07/20 07:52:52;;;;;;;5.95;2.25;;;20.80;99.90;;;;;;5071678;28;20224;-59
2023/07/20 07:55:20;;;;;;;4.95;2.03;;;20.90;99.90;;;;;;5071663;28;20263;-60
2023/07/20 07:57:48;;;;;;;4.03;2.28;;;21.00;99.90;;;;;;5087979;28;20388;-60
2023/07/20 08:00:18;;;;;;;3.90;1.70;;;21.10;99.90;;;;;;5076257;28;20287;-60
2023/07/20 08:02:47;;;;;;;3.35;1.80;;;21.20;99.90;;;;;;5082359;28;20279;-60
2023/07/20 08:05:16;;;;;;;6.72;2.15;;;21.20;99.90;;;;;;5092847;22;20229;-59
2023/07/20 08:07:46;;;;;;;7.22;2.30;;;21.30;99.90;;;;;;5070713;28;20639;-59
2023/07/20 08:10:14;;;;;;;2.40;2.20;;;21.20;99.90;;;;;;5059989;28;20646;-58
2023/07/20 08:12:41;;;;;;;4.88;2.88;;;21.20;99.90;;;;;;5066341;28;20221;-59
2023/07/20 08:15:12;;;;;;;6.65;2.50;;;21.10;99.90;;;;;;5067570;28;20251;-59
2023/07/20 08:17:40;;;;;;;9.13;2.42;;;21.00;99.90;;;;;;5069981;28;20655;-58
2023/07/20 08:20:11;;;;;;;5.65;2.20;;;21.10;99.90;;;;;;5071237;28;20212;-58
2023/07/20 08:22:39;;;;;;;2.70;2.20;;;21.30;99.90;;;;;;5063225;28;20197;-59
2023/07/20 08:25:09;;;;;;;4.13;2.08;;;21.40;99.90;;;;;;5062574;28;20308;-59
2023/07/20 08:27:37;;;;;;;6.72;1.88;;;21.70;99.90;;;;;;5071556;28;20205;-59
2023/07/20 08:30:07;;;;;;;2.92;1.80;;;21.80;99.90;;;;;;5042164;28;20258;-59
2023/07/20 08:32:35;;;;;;;2.33;2.10;;;21.90;99.90;;;;;;5067181;28;20243;-59
2023/07/20 08:35:04;;;;;;;1.85;1.75;;;21.90;99.90;;;;;;5066089;28;20227;-59
2023/07/20 08:37:33;;;;;;;5.50;2.00;;;22.00;99.90;;;;;;5059371;28;20201;-59
2023/07/20 08:40:01;;;;;;;3.00;1.60;;;22.20;99.90;;;;;;5071137;28;20292;-59
2023/07/20 08:42:30;;;;;;;1.70;1.60;;;22.20;99.90;;;;;;5061494;28;20205;-59
2023/07/20 08:44:58;;;;;;;4.45;1.80;;;22.10;99.90;;;;;;5063500;28;20769;-59
2023/07/20 08:47:26;;;;;;;3.15;1.50;;;22.20;99.90;;;;;;5069324;28;20266;-60
2023/07/20 08:49:54;;;;;;;5.28;1.80;;;22.30;99.90;;;;;;5057959;28;20293;-60
2023/07/20 08:52:22;;;;;;;3.53;1.60;;;22.40;99.90;;;;;;5068344;28;20259;-60
2023/07/20 08:54:50;;;;;;;2.15;1.92;;;22.50;99.90;;;;;;5063858;28;20775;-59
2023/07/20 08:57:18;;;;;;;2.22;1.45;;;22.40;99.90;;;;;;5060941;28;20202;-59
2023/07/20 08:59:47;;;;;;;3.05;1.90;;;22.30;99.90;;;;;;5070942;28;20643;-59
2023/07/20 09:02:17;;;;;;;3.58;1.70;;;22.10;99.90;;;;;;5059284;28;20274;-60
2023/07/20 09:04:46;;;;;;;4.13;1.45;;;22.20;99.90;;;;;;5064589;28;20233;-59
2023/07/20 09:07:14;;;;;;;2.88;1.70;;;22.40;99.90;;;;;;5067099;28;20299;-59
2023/07/20 09:09:42;;;;;;;5.80;1.95;;;22.70;99.90;;;;;;5057743;28;20205;-59
2023/07/20 09:12:14;;;;;;;5.20;1.80;;;22.90;99.90;;;;;;5069354;28;20232;-59
2023/07/20 09:14:43;;;;;;;3.42;1.45;;;23.00;99.90;;;;;;5062944;28;20221;-59
2023/07/20 09:17:15;;;;;;;3.92;1.50;;;23.00;99.90;;;;;;5068445;28;20200;-59
2023/07/20 09:19:48;;;;;;;2.58;1.50;;;23.00;99.90;;;;;;5073491;28;20200;-59
2023/07/20 09:22:17;;;;;;;3.15;1.65;;;23.00;99.90;;;;;;5058983;28;20642;-59
2023/07/20 09:24:45;;;;;;;2.03;1.60;;;23.10;99.90;;;;;;5064904;28;20201;-60
2023/07/20 09:27:13;;;;;;;3.80;1.50;;;23.00;99.90;;;;;;5066937;28;20204;-59
2023/07/20 09:29:50;;;;;;;1.67;1.42;;;22.80;99.90;;;;;;5057313;28;20233;-60
2023/07/20 09:32:22;;;;;;;1.52;1.42;;;22.70;99.90;;;;;;5068383;28;20233;-60
2023/07/20 09:34:53;;;;;;;3.67;1.50;;;22.60;99.90;;;;;;5063650;28;20603;-60
2023/07/20 09:37:22;;;;;;;5.80;1.70;;;22.50;99.90;;;;;;5059828;28;20259;-60
2023/07/20 09:39:50;;;;;;;2.85;1.25;;;22.70;99.90;;;;;;5070149;28;20200;-60
2023/07/20 09:42:24;;;;;;;1.75;1.50;;;23.10;99.90;;;;;;5059295;28;20288;-60
2023/07/20 09:44:55;;;;;;;1.75;1.23;;;23.40;99.90;;;;;;5070882;28;20239;-60
2023/07/20 09:47:26;;;;;;;3.88;1.27;;;23.60;99.90;;;;;;5063774;28;20202;-59
2023/07/20 09:49:59;;;;;;;3.70;1.40;;;23.90;99.90;;;;;;5060522;28;20210;-60
2023/07/20 09:52:31;;;;;;;1.25;1.15;;;24.30;99.90;;;;;;5061500;28;20651;-59
2023/07/20 09:55:02;;;;;;;1.48;1.38;;;24.60;99.90;;;;;;5056128;28;20375;-59
2023/07/20 09:57:30;;;;;;;1.25;1.15;;;24.70;99.90;;;;;;5063734;28;20747;-59
2023/07/20 09:59:59;;;;;;;1.77;1.30;;;24.60;99.90;;;;;;5057155;28;20225;-58
2023/07/20 10:02:48;;;;;;;1.55;1.17;;;24.80;99.90;;;;;;5065113;28;20668;-60
2023/07/20 10:05:16;;;;;;;1.90;1.50;;;24.90;99.90;;;;;;5072875;28;20225;-60
2023/07/20 10:07:46;;;;;;;2.83;1.33;;;24.70;99.90;;;;;;5056833;28;20206;-60
2023/07/20 10:10:15;;;;;;;1.70;1.45;;;24.50;99.90;;;;;;5068340;28;20582;-59
2023/07/20 10:12:43;;;;;;;1.63;1.25;;;24.20;99.90;;;;;;5061944;28;20288;-60
2023/07/20 10:15:13;;;;;;;1.55;1.33;;;24.00;99.90;;;;;;5059969;28;20228;-60
2023/07/20 10:17:49;;;;;;;3.28;1.20;;;23.80;99.90;;;;;;5068681;28;20291;-58
2023/07/20 10:20:21;;;;;;;3.58;1.30;;;23.50;99.90;;;;;;5068040;28;20205;-59
2023/07/20 10:22:49;;;;;;;2.08;1.08;;;23.40;99.90;;;;;;5062250;28;20598;-59
2023/07/20 10:25:18;;;;;;;6.65;1.20;;;23.20;99.90;;;;;;5059225;28;20640;-59
2023/07/20 10:27:47;;;;;;;1.30;1.20;;;23.10;99.90;;;;;;5069278;28;20245;-60
2023/07/20 10:30:15;;;;;;;1.17;1.08;;;23.10;99.90;;;;;;5056790;28;20292;-60
2023/07/20 10:32:43;;;;;;;2.70;1.40;;;23.00;99.90;;;;;;5063960;28;20681;-59
2023/07/20 10:35:14;;;;;;;1.35;1.25;;;22.90;99.90;;;;;;5065072;28;20232;-60
2023/07/20 10:37:51;;;;;;;4.45;1.30;;;22.80;99.90;;;;;;5055710;28;20205;-60
2023/07/20 10:40:32;;;;;;;3.63;1.60;;;22.70;99.90;;;;;;5067407;28;20242;-60
2023/07/20 10:43:04;;;;;;;2.15;1.20;;;22.70;99.90;;;;;;5062244;28;20201;-59
2023/07/20 10:45:51;;;;;;;1.40;1.30;;;22.70;99.90;;;;;;5054759;28;20720;-60
2023/07/20 10:48:20;;;;;;;1.70;1.30;;;22.80;99.90;;;;;;5057808;28;20208;-60
2023/07/20 10:51:12;;;;;;;2.30;1.40;;;22.90;99.90;;;;;;5066321;28;20236;-58
2023/07/20 10:53:42;;;;;;;2.88;1.30;;;23.20;99.90;;;;;;5059388;28;20202;-59
2023/07/20 10:56:12;;;;;;;2.15;1.65;;;24.00;99.90;;;;;;5059220;28;20300;-60
2023/07/20 10:58:40;;;;;;;2.92;1.40;;;24.60;99.90;;;;;;5064830;28;20215;-57
2023/07/20 11:01:10;;;;;;;1.52;1.42;;;24.80;99.90;;;;;;5058085;28;20299;-60
2023/07/20 11:03:40;;;;;;;1.50;1.40;;;24.70;99.90;;;;;;5050684;28;20292;-61
2023/07/20 11:06:31;;;;;;;1.60;1.50;;;24.60;99.90;;;;;;5055556;28;20235;-61
2023/07/20 11:09:06;;;;;;;2.05;1.42;;;24.40;99.90;;;;;;5053869;28;20665;-59
2023/07/20 11:11:36;;;;;;;3.72;1.48;;;24.30;99.90;;;;;;5060128;28;20241;-59
2023/07/20 11:14:06;;;;;;;2.70;1.30;;;24.30;99.90;;;;;;5054519;28;20464;-59
2023/07/20 11:16:34;;;;;;;2.83;1.33;;;24.10;99.90;;;;;;5067171;28;20224;-61
2023/07/20 11:19:02;;;;;;;1.58;1.48;;;24.10;99.90;;;;;;5071918;28;20201;-60
2023/07/20 11:21:30;;;;;;;1.50;1.40;;;24.10;99.90;;;;;;5056786;28;20197;-60
2023/07/20 11:23:58;;;;;;;2.70;1.50;;;24.10;99.90;;;;;;5065425;28;20207;-60
2023/07/20 11:26:27;;;;;;;3.22;1.83;;;24.10;99.90;;;;;;5065009;28;20264;-60
2023/07/20 11:28:55;;;;;;;5.00;1.40;;;24.10;99.90;;;;;;5062310;28;20236;-60
2023/07/20 11:31:23;;;;;;;6.00;1.58;;;24.10;99.90;;;;;;5057401;28;20201;-59
2023/07/20 11:33:52;;;;;;;3.47;1.13;;;24.40;99.90;;;;;;5067930;28;20217;-60
2023/07/20 11:36:19;;;;;;;2.63;1.42;;;24.80;99.90;;;;;;5056479;28;20275;-60
2023/07/20 11:38:50;;;;;;;1.75;1.23;;;25.30;99.90;;;;;;5061391;28;20365;-60
2023/07/20 11:41:18;;;;;;;4.28;1.70;;;26.00;99.90;;;;;;5055545;28;21002;-61
2023/07/20 11:43:48;;;;;;;1.90;1.20;;;26.70;99.90;;;;;;5067476;28;20209;-61
2023/07/20 11:46:16;;;;;;;1.45;1.35;;;27.10;99.90;;;;;;5062564;28;20235;-60
2023/07/20 11:48:44;;;;;;;1.55;1.38;;;26.90;99.90;;;;;;5054466;28;20210;-61
2023/07/20 11:51:16;;;;;;;1.83;1.63;;;26.50;99.90;;;;;;5066522;28;20676;-59
2023/07/20 11:53:45;;;;;;;1.75;1.40;;;26.10;99.90;;;;;;5051819;28;20263;-59
2023/07/20 11:56:13;;;;;;;4.18;1.60;;;25.80;99.90;;;;;;5062882;28;20311;-60
2023/07/20 11:58:44;;;;;;;2.30;1.45;;;25.50;99.90;;;;;;5063177;28;20236;-60
2023/07/20 12:01:14;;;;;;;3.03;1.42;;;25.30;99.90;;;;;;5058306;28;20213;-60
2023/07/20 12:03:43;;;;;;;3.25;1.50;;;25.10;99.90;;;;;;5067542;28;20236;-60
2023/07/20 12:06:11;;;;;;;3.90;1.58;;;24.90;99.90;;;;;;5054758;28;20243;-60
2023/07/20 12:08:40;;;;;;;4.65;1.88;;;24.70;99.90;;;;;;5062810;28;20247;-60
2023/07/20 12:11:08;;;;;;;3.10;1.55;;;24.60;99.90;;;;;;5063488;28;20208;-59
2023/07/20 12:13:37;;;;;;;2.80;1.45;;;25.20;99.90;;;;;;5054663;28;20240;-60
2023/07/20 12:16:11;;;;;;;1.40;1.30;;;26.10;99.90;;;;;;5054062;28;20261;-60
2023/07/20 12:18:41;;;;;;;3.22;1.52;;;26.90;99.90;;;;;;5070680;28;20283;-60
2023/07/20 12:21:09;;;;;;;3.42;1.55;;;27.50;99.90;;;;;;5058854;28;20205;-59
2023/07/20 12:23:38;;;;;;;2.00;1.40;;;28.00;99.90;;;;;;5067289;28;20296;-60
2023/07/20 12:26:09;;;;;;;2.83;1.33;;;27.80;99.90;;;;;;5037905;28;20244;-60
2023/07/20 12:28:40;;;;;;;2.67;1.65;;;27.60;99.90;;;;;;5061798;28;20331;-60
2023/07/20 12:31:09;;;;;;;2.13;1.63;;;27.30;99.90;;;;;;5062801;28;20555;-60
2023/07/20 12:33:37;;;;;;;4.30;1.40;;;27.10;99.90;;;;;;5054644;28;20225;-60
2023/07/20 12:36:07;;;;;;;1.17;1.08;;;27.20;99.90;;;;;;5037884;28;20229;-60
2023/07/20 12:38:35;;;;;;;3.20;1.35;;;27.70;99.90;;;;;;5063187;28;20229;-60
2023/07/20 12:41:03;;;;;;;2.17;1.38;;;28.00;99.90;;;;;;5062514;28;20283;-60
2023/07/20 12:43:31;;;;;;;1.95;1.35;;;28.30;99.90;;;;;;5055205;28;20205;-60
2023/07/20 12:46:00;;;;;;;2.40;1.55;;;28.70;99.90;;;;;;5066943;28;20998;-60
2023/07/20 12:48:28;;;;;;;1.42;1.33;;;29.30;99.90;;;;;;5057448;28;20220;-59
2023/07/20 12:50:56;;;;;;;2.85;1.65;;;29.70;96.50;;;;;;5060428;28;20392;-60
2023/07/20 12:53:25;;;;;;;3.63;1.52;;;30.10;95.10;;;;;;5067285;28;20232;-59
2023/07/20 12:55:53;;;;;;;3.28;1.65;;;30.30;93.70;;;;;;5042494;28;20218;-60
2023/07/20 12:58:21;;;;;;;2.80;1.35;;;30.40;92.90;;;;;;5068406;28;20227;-60